sensor_id;sensor_type;location;lat;lon;timestamp;P1;durP1;ratioP1;P2;durP2;ratioP2
60454;SDS011;54989;53.398;6.564;2022-12-15T00:01:59;5.53;;;5.03;;
60454;SDS011;54989;53.398;6.564;2022-12-15T00:04:45;5.30;;;4.80;;
60454;SDS011;54989;53.398;6.564;2022-12-15T00:07:32;5.45;;;4.95;;
60454;SDS011;54989;53.398;6.564;2022-12-15T00:10:18;6.10;;;5.50;;
60454;SDS011;54989;53.398;6.564;2022-12-15T00:13:11;6.10;;;5.50;;
60454;SDS011;54989;53.398;6.564;2022-12-15T00:15:58;6.15;;;5.55;;
60454;SDS011;54989;53.398;6.564;2022-12-15T00:18:44;7.43;;;6.63;;
60454;SDS011;54989;53.398;6.564;2022-12-15T00:21:30;6.90;;;6.20;;
60454;SDS011;54989;53.398;6.564;2022-12-15T00:24:16;6.30;;;5.70;;
60454;SDS011;54989;53.398;6.564;2022-12-15T00:27:02;6.85;;;6.15;;
60454;SDS011;54989;53.398;6.564;2022-12-15T00:29:49;7.13;;;5.63;;
60454;SDS011;54989;53.398;6.564;2022-12-15T00:32:34;6.95;;;6.22;;
60454;SDS011;54989;53.398;6.564;2022-12-15T00:35:20;7.20;;;6.32;;
60454;SDS011;54989;53.398;6.564;2022-12-15T00:38:07;6.72;;;6.03;;
60454;SDS011;54989;53.398;6.564;2022-12-15T00:40:53;7.03;;;6.10;;
60454;SDS011;54989;53.398;6.564;2022-12-15T00:45:57;7.20;;;6.05;;
60454;SDS011;54989;53.398;6.564;2022-12-15T00:48:43;6.43;;;5.82;;
60454;SDS011;54989;53.398;6.564;2022-12-15T00:51:11;6.55;;;5.85;;
60454;SDS011;54989;53.398;6.564;2022-12-15T00:53:39;6.20;;;5.60;;
60454;SDS011;54989;53.398;6.564;2022-12-15T00:56:26;6.18;;;5.55;;
60454;SDS011;54989;53.398;6.564;2022-12-15T00:59:12;5.47;;;4.97;;
60454;SDS011;54989;53.398;6.564;2022-12-15T01:01:59;5.70;;;5.03;;
60454;SDS011;54989;53.398;6.564;2022-12-15T01:04:46;5.45;;;4.90;;
60454;SDS011;54989;53.398;6.564;2022-12-15T01:07:32;5.05;;;4.55;;
60454;SDS011;54989;53.398;6.564;2022-12-15T01:10:18;5.05;;;4.55;;
60454;SDS011;54989;53.398;6.564;2022-12-15T01:13:04;5.05;;;4.63;;
60454;SDS011;54989;53.398;6.564;2022-12-15T01:15:50;4.35;;;3.95;;
60454;SDS011;54989;53.398;6.564;2022-12-15T01:18:36;4.68;;;4.25;;
60454;SDS011;54989;53.398;6.564;2022-12-15T01:21:22;4.43;;;4.03;;
60454;SDS011;54989;53.398;6.564;2022-12-15T01:23:51;4.30;;;3.90;;
60454;SDS011;54989;53.398;6.564;2022-12-15T01:26:19;4.55;;;4.03;;
60454;SDS011;54989;53.398;6.564;2022-12-15T01:28:47;4.05;;;3.65;;
60454;SDS011;54989;53.398;6.564;2022-12-15T01:31:14;4.10;;;3.70;;
60454;SDS011;54989;53.398;6.564;2022-12-15T01:33:42;3.90;;;3.60;;
60454;SDS011;54989;53.398;6.564;2022-12-15T01:36:09;4.03;;;3.65;;
60454;SDS011;54989;53.398;6.564;2022-12-15T01:38:37;4.18;;;3.75;;
60454;SDS011;54989;53.398;6.564;2022-12-15T01:41:05;3.50;;;3.20;;
60454;SDS011;54989;53.398;6.564;2022-12-15T01:43:39;3.90;;;3.60;;
60454;SDS011;54989;53.398;6.564;2022-12-15T01:48:43;3.53;;;3.22;;
60454;SDS011;54989;53.398;6.564;2022-12-15T01:51:41;3.50;;;3.20;;
60454;SDS011;54989;53.398;6.564;2022-12-15T01:54:19;3.13;;;2.83;;
60454;SDS011;54989;53.398;6.564;2022-12-15T01:56:54;3.13;;;2.83;;
60454;SDS011;54989;53.398;6.564;2022-12-15T01:59:59;3.28;;;2.72;;
60454;SDS011;54989;53.398;6.564;2022-12-15T02:02:21;3.22;;;2.92;;
60454;SDS011;54989;53.398;6.564;2022-12-15T02:04:52;3.13;;;2.83;;
60454;SDS011;54989;53.398;6.564;2022-12-15T02:07:22;2.60;;;2.40;;
60454;SDS011;54989;53.398;6.564;2022-12-15T02:09:51;3.45;;;3.10;;
60454;SDS011;54989;53.398;6.564;2022-12-15T02:18:17;2.70;;;2.50;;
60454;SDS011;54989;53.398;6.564;2022-12-15T02:32:23;3.10;;;2.60;;
60454;SDS011;54989;53.398;6.564;2022-12-15T02:35:07;2.63;;;2.42;;
60454;SDS011;54989;53.398;6.564;2022-12-15T02:37:57;3.30;;;2.60;;
60454;SDS011;54989;53.398;6.564;2022-12-15T02:40:24;2.88;;;2.58;;
60454;SDS011;54989;53.398;6.564;2022-12-15T02:42:52;2.60;;;2.40;;
60454;SDS011;54989;53.398;6.564;2022-12-15T02:45:31;2.55;;;2.35;;
60454;SDS011;54989;53.398;6.564;2022-12-15T02:48:31;3.47;;;2.15;;
60454;SDS011;54989;53.398;6.564;2022-12-15T02:57:04;2.30;;;2.10;;
60454;SDS011;54989;53.398;6.564;2022-12-15T03:02:24;2.33;;;2.08;;
60454;SDS011;54989;53.398;6.564;2022-12-15T03:04:56;2.30;;;2.10;;
60454;SDS011;54989;53.398;6.564;2022-12-15T03:07:24;2.17;;;1.98;;
60454;SDS011;54989;53.398;6.564;2022-12-15T03:09:57;2.10;;;1.95;;
60454;SDS011;54989;53.398;6.564;2022-12-15T03:12:26;2.92;;;2.25;;
60454;SDS011;54989;53.398;6.564;2022-12-15T03:14:54;2.03;;;1.83;;
60454;SDS011;54989;53.398;6.564;2022-12-15T03:17:21;2.22;;;2.00;;
60454;SDS011;54989;53.398;6.564;2022-12-15T03:19:49;2.15;;;1.95;;
60454;SDS011;54989;53.398;6.564;2022-12-15T03:22:16;2.08;;;1.70;;
60454;SDS011;54989;53.398;6.564;2022-12-15T03:24:44;2.75;;;2.25;;
60454;SDS011;54989;53.398;6.564;2022-12-15T03:27:11;2.00;;;1.80;;
60454;SDS011;54989;53.398;6.564;2022-12-15T03:29:39;2.35;;;2.00;;
60454;SDS011;54989;53.398;6.564;2022-12-15T03:32:06;3.13;;;2.10;;
60454;SDS011;54989;53.398;6.564;2022-12-15T03:34:34;2.53;;;2.30;;
60454;SDS011;54989;53.398;6.564;2022-12-15T03:37:01;2.50;;;2.20;;
60454;SDS011;54989;53.398;6.564;2022-12-15T03:39:29;2.83;;;2.17;;
60454;SDS011;54989;53.398;6.564;2022-12-15T03:41:56;2.92;;;2.22;;
60454;SDS011;54989;53.398;6.564;2022-12-15T03:44:24;2.53;;;2.00;;
60454;SDS011;54989;53.398;6.564;2022-12-15T03:46:51;2.28;;;2.08;;
60454;SDS011;54989;53.398;6.564;2022-12-15T03:49:25;2.60;;;2.22;;
60454;SDS011;54989;53.398;6.564;2022-12-15T03:51:52;2.30;;;2.10;;
60454;SDS011;54989;53.398;6.564;2022-12-15T03:54:20;2.83;;;2.10;;
60454;SDS011;54989;53.398;6.564;2022-12-15T03:56:48;2.83;;;2.15;;
60454;SDS011;54989;53.398;6.564;2022-12-15T03:59:15;2.20;;;2.00;;
60454;SDS011;54989;53.398;6.564;2022-12-15T04:01:46;2.75;;;2.00;;
60454;SDS011;54989;53.398;6.564;2022-12-15T04:04:15;2.25;;;2.05;;
60454;SDS011;54989;53.398;6.564;2022-12-15T04:06:42;2.25;;;2.00;;
60454;SDS011;54989;53.398;6.564;2022-12-15T04:09:10;2.28;;;1.88;;
60454;SDS011;54989;53.398;6.564;2022-12-15T04:11:37;2.58;;;2.08;;
60454;SDS011;54989;53.398;6.564;2022-12-15T04:14:04;3.63;;;2.33;;
60454;SDS011;54989;53.398;6.564;2022-12-15T04:16:32;3.30;;;2.60;;
60454;SDS011;54989;53.398;6.564;2022-12-15T04:18:59;3.08;;;2.30;;
60454;SDS011;54989;53.398;6.564;2022-12-15T04:21:45;3.88;;;2.47;;
60454;SDS011;54989;53.398;6.564;2022-12-15T04:24:13;3.53;;;2.42;;
60454;SDS011;54989;53.398;6.564;2022-12-15T04:26:59;4.00;;;2.60;;
60454;SDS011;54989;53.398;6.564;2022-12-15T04:29:44;3.85;;;2.60;;
60454;SDS011;54989;53.398;6.564;2022-12-15T04:32:30;3.10;;;2.10;;
60454;SDS011;54989;53.398;6.564;2022-12-15T04:35:16;3.72;;;2.67;;
60454;SDS011;54989;53.398;6.564;2022-12-15T04:38:02;3.15;;;2.47;;
60454;SDS011;54989;53.398;6.564;2022-12-15T04:40:48;2.97;;;2.33;;
60454;SDS011;54989;53.398;6.564;2022-12-15T04:43:34;3.35;;;2.40;;
60454;SDS011;54989;53.398;6.564;2022-12-15T04:46:20;2.67;;;2.10;;
60454;SDS011;54989;53.398;6.564;2022-12-15T04:49:06;3.70;;;2.40;;
60454;SDS011;54989;53.398;6.564;2022-12-15T04:51:52;2.45;;;2.10;;
60454;SDS011;54989;53.398;6.564;2022-12-15T04:54:38;2.70;;;2.10;;
60454;SDS011;54989;53.398;6.564;2022-12-15T04:57:23;3.17;;;2.50;;
60454;SDS011;54989;53.398;6.564;2022-12-15T05:00:09;4.35;;;2.70;;
60454;SDS011;54989;53.398;6.564;2022-12-15T05:03:02;3.80;;;2.55;;
60454;SDS011;54989;53.398;6.564;2022-12-15T05:05:51;3.70;;;2.60;;
60454;SDS011;54989;53.398;6.564;2022-12-15T05:08:38;3.83;;;2.13;;
60454;SDS011;54989;53.398;6.564;2022-12-15T05:11:24;4.82;;;2.55;;
60454;SDS011;54989;53.398;6.564;2022-12-15T05:14:09;3.13;;;2.40;;
60454;SDS011;54989;53.398;6.564;2022-12-15T05:16:56;2.72;;;2.13;;
60454;SDS011;54989;53.398;6.564;2022-12-15T05:19:41;3.95;;;2.80;;
60454;SDS011;54989;53.398;6.564;2022-12-15T05:22:28;3.85;;;2.50;;
60454;SDS011;54989;53.398;6.564;2022-12-15T05:25:13;3.00;;;2.30;;
60454;SDS011;54989;53.398;6.564;2022-12-15T05:27:59;2.65;;;2.10;;
60454;SDS011;54989;53.398;6.564;2022-12-15T05:30:45;4.05;;;2.45;;
60454;SDS011;54989;53.398;6.564;2022-12-15T05:33:31;3.10;;;2.30;;
60454;SDS011;54989;53.398;6.564;2022-12-15T05:35:59;2.67;;;2.17;;
60454;SDS011;54989;53.398;6.564;2022-12-15T05:38:27;3.15;;;2.08;;
60454;SDS011;54989;53.398;6.564;2022-12-15T05:40:57;2.88;;;1.90;;
60454;SDS011;54989;53.398;6.564;2022-12-15T05:43:26;2.55;;;2.10;;
60454;SDS011;54989;53.398;6.564;2022-12-15T05:45:54;2.72;;;1.88;;
60454;SDS011;54989;53.398;6.564;2022-12-15T05:48:22;2.83;;;2.00;;
60454;SDS011;54989;53.398;6.564;2022-12-15T05:50:49;3.17;;;2.20;;
60454;SDS011;54989;53.398;6.564;2022-12-15T05:53:17;2.17;;;1.70;;
60454;SDS011;54989;53.398;6.564;2022-12-15T05:55:44;2.53;;;2.08;;
60454;SDS011;54989;53.398;6.564;2022-12-15T05:58:12;2.83;;;2.00;;
60454;SDS011;54989;53.398;6.564;2022-12-15T06:00:39;2.38;;;1.80;;
60454;SDS011;54989;53.398;6.564;2022-12-15T06:03:07;2.38;;;1.85;;
60454;SDS011;54989;53.398;6.564;2022-12-15T06:05:34;2.13;;;1.80;;
60454;SDS011;54989;53.398;6.564;2022-12-15T06:08:02;1.58;;;1.45;;
60454;SDS011;54989;53.398;6.564;2022-12-15T06:10:29;2.13;;;1.60;;
60454;SDS011;54989;53.398;6.564;2022-12-15T06:12:57;2.20;;;1.42;;
60454;SDS011;54989;53.398;6.564;2022-12-15T06:15:24;2.25;;;1.67;;
60454;SDS011;54989;53.398;6.564;2022-12-15T06:17:52;3.03;;;1.67;;
60454;SDS011;54989;53.398;6.564;2022-12-15T06:20:21;1.83;;;1.63;;
60454;SDS011;54989;53.398;6.564;2022-12-15T06:22:49;1.80;;;1.60;;
60454;SDS011;54989;53.398;6.564;2022-12-15T06:25:16;1.70;;;1.40;;
60454;SDS011;54989;53.398;6.564;2022-12-15T06:27:44;2.72;;;1.65;;
60454;SDS011;54989;53.398;6.564;2022-12-15T06:30:11;2.03;;;1.40;;
60454;SDS011;54989;53.398;6.564;2022-12-15T06:32:39;1.77;;;1.60;;
60454;SDS011;54989;53.398;6.564;2022-12-15T06:35:06;1.85;;;1.40;;
60454;SDS011;54989;53.398;6.564;2022-12-15T06:37:34;2.30;;;1.70;;
60454;SDS011;54989;53.398;6.564;2022-12-15T06:40:04;1.75;;;1.38;;
60454;SDS011;54989;53.398;6.564;2022-12-15T06:42:31;3.55;;;1.60;;
60454;SDS011;54989;53.398;6.564;2022-12-15T06:44:59;1.40;;;1.30;;
60454;SDS011;54989;53.398;6.564;2022-12-15T06:47:26;1.73;;;1.52;;
60454;SDS011;54989;53.398;6.564;2022-12-15T06:49:54;1.65;;;1.50;;
60454;SDS011;54989;53.398;6.564;2022-12-15T06:52:21;1.85;;;1.40;;
60454;SDS011;54989;53.398;6.564;2022-12-15T06:54:49;2.00;;;1.50;;
60454;SDS011;54989;53.398;6.564;2022-12-15T06:57:16;2.78;;;1.75;;
60454;SDS011;54989;53.398;6.564;2022-12-15T06:59:43;1.88;;;1.42;;
60454;SDS011;54989;53.398;6.564;2022-12-15T07:02:17;3.30;;;2.13;;
60454;SDS011;54989;53.398;6.564;2022-12-15T07:04:54;2.42;;;2.10;;
60454;SDS011;54989;53.398;6.564;2022-12-15T07:07:21;1.98;;;1.80;;
60454;SDS011;54989;53.398;6.564;2022-12-15T07:09:49;2.20;;;1.92;;
60454;SDS011;54989;53.398;6.564;2022-12-15T07:12:16;2.97;;;2.13;;
60454;SDS011;54989;53.398;6.564;2022-12-15T07:14:44;2.10;;;1.90;;
60454;SDS011;54989;53.398;6.564;2022-12-15T07:17:18;2.67;;;2.05;;
60454;SDS011;54989;53.398;6.564;2022-12-15T07:19:46;3.20;;;2.10;;
60454;SDS011;54989;53.398;6.564;2022-12-15T07:22:13;3.13;;;2.17;;
60454;SDS011;54989;53.398;6.564;2022-12-15T07:24:41;3.03;;;2.20;;
60454;SDS011;54989;53.398;6.564;2022-12-15T07:27:09;2.30;;;2.10;;
60454;SDS011;54989;53.398;6.564;2022-12-15T07:29:36;2.38;;;2.17;;
60454;SDS011;54989;53.398;6.564;2022-12-15T07:32:04;3.08;;;2.30;;
60454;SDS011;54989;53.398;6.564;2022-12-15T07:34:32;4.13;;;2.50;;
60454;SDS011;54989;53.398;6.564;2022-12-15T07:36:59;2.90;;;2.20;;
60454;SDS011;54989;53.398;6.564;2022-12-15T07:39:27;2.60;;;2.40;;
60454;SDS011;54989;53.398;6.564;2022-12-15T07:41:55;4.45;;;2.90;;
60454;SDS011;54989;53.398;6.564;2022-12-15T07:44:22;3.58;;;2.78;;
60454;SDS011;54989;53.398;6.564;2022-12-15T07:46:50;3.53;;;2.72;;
60454;SDS011;54989;53.398;6.564;2022-12-15T07:49:18;3.53;;;3.13;;
60454;SDS011;54989;53.398;6.564;2022-12-15T07:51:46;3.95;;;2.78;;
60454;SDS011;54989;53.398;6.564;2022-12-15T07:54:14;3.78;;;2.75;;
60454;SDS011;54989;53.398;6.564;2022-12-15T07:56:41;3.33;;;3.03;;
60454;SDS011;54989;53.398;6.564;2022-12-15T07:59:09;3.42;;;3.10;;
60454;SDS011;54989;53.398;6.564;2022-12-15T08:01:36;3.63;;;2.90;;
60454;SDS011;54989;53.398;6.564;2022-12-15T08:04:04;5.63;;;3.35;;
60454;SDS011;54989;53.398;6.564;2022-12-15T08:06:32;3.47;;;2.85;;
60454;SDS011;54989;53.398;6.564;2022-12-15T08:09:00;4.82;;;3.28;;
60454;SDS011;54989;53.398;6.564;2022-12-15T08:11:27;3.63;;;3.17;;
60454;SDS011;54989;53.398;6.564;2022-12-15T08:14:00;4.97;;;3.35;;
60454;SDS011;54989;53.398;6.564;2022-12-15T08:16:31;3.70;;;3.20;;
60454;SDS011;54989;53.398;6.564;2022-12-15T08:19:00;6.20;;;3.42;;
60454;SDS011;54989;53.398;6.564;2022-12-15T08:21:29;6.50;;;3.35;;
60454;SDS011;54989;53.398;6.564;2022-12-15T08:23:57;9.05;;;3.63;;
60454;SDS011;54989;53.398;6.564;2022-12-15T08:26:26;4.80;;;3.28;;
60454;SDS011;54989;53.398;6.564;2022-12-15T08:28:59;3.47;;;2.80;;
60454;SDS011;54989;53.398;6.564;2022-12-15T08:31:49;5.05;;;2.80;;
60454;SDS011;54989;53.398;6.564;2022-12-15T08:34:17;4.60;;;3.05;;
60454;SDS011;54989;53.398;6.564;2022-12-15T08:36:45;3.90;;;3.05;;
60454;SDS011;54989;53.398;6.564;2022-12-15T08:39:13;3.92;;;2.97;;
60454;SDS011;54989;53.398;6.564;2022-12-15T08:41:40;3.75;;;2.80;;
60454;SDS011;54989;53.398;6.564;2022-12-15T08:44:08;3.78;;;2.92;;
60454;SDS011;54989;53.398;6.564;2022-12-15T08:46:35;4.70;;;2.88;;
60454;SDS011;54989;53.398;6.564;2022-12-15T08:49:03;4.40;;;2.88;;
60454;SDS011;54989;53.398;6.564;2022-12-15T08:51:31;3.70;;;3.00;;
60454;SDS011;54989;53.398;6.564;2022-12-15T08:53:59;4.35;;;2.78;;
60454;SDS011;54989;53.398;6.564;2022-12-15T08:56:27;3.72;;;2.45;;
60454;SDS011;54989;53.398;6.564;2022-12-15T08:58:56;3.10;;;2.53;;
60454;SDS011;54989;53.398;6.564;2022-12-15T09:01:26;2.97;;;2.60;;
60454;SDS011;54989;53.398;6.564;2022-12-15T09:03:55;2.85;;;2.40;;
60454;SDS011;54989;53.398;6.564;2022-12-15T09:06:25;3.63;;;2.53;;
60454;SDS011;54989;53.398;6.564;2022-12-15T09:08:57;3.63;;;2.30;;
60454;SDS011;54989;53.398;6.564;2022-12-15T09:11:30;4.85;;;2.10;;
60454;SDS011;54989;53.398;6.564;2022-12-15T09:13:58;2.20;;;2.00;;
60454;SDS011;54989;53.398;6.564;2022-12-15T09:16:26;3.78;;;1.95;;
60454;SDS011;54989;53.398;6.564;2022-12-15T09:18:55;3.55;;;2.03;;
60454;SDS011;54989;53.398;6.564;2022-12-15T09:21:25;3.80;;;2.20;;
60454;SDS011;54989;53.398;6.564;2022-12-15T09:23:55;3.70;;;2.03;;
60454;SDS011;54989;53.398;6.564;2022-12-15T09:26:27;2.65;;;2.10;;
60454;SDS011;54989;53.398;6.564;2022-12-15T09:28:57;2.47;;;2.20;;
60454;SDS011;54989;53.398;6.564;2022-12-15T09:31:26;2.13;;;1.80;;
60454;SDS011;54989;53.398;6.564;2022-12-15T09:33:56;2.10;;;1.80;;
60454;SDS011;54989;53.398;6.564;2022-12-15T09:36:25;2.78;;;1.90;;
60454;SDS011;54989;53.398;6.564;2022-12-15T09:38:53;2.80;;;2.00;;
60454;SDS011;54989;53.398;6.564;2022-12-15T09:41:25;2.45;;;1.95;;
60454;SDS011;54989;53.398;6.564;2022-12-15T09:43:55;2.50;;;1.60;;
60454;SDS011;54989;53.398;6.564;2022-12-15T09:52:03;2.88;;;1.77;;
60454;SDS011;54989;53.398;6.564;2022-12-15T09:54:37;3.08;;;1.73;;
60454;SDS011;54989;53.398;6.564;2022-12-15T10:00:05;2.67;;;1.88;;
60454;SDS011;54989;53.398;6.564;2022-12-15T10:03:03;3.15;;;1.70;;
60454;SDS011;54989;53.398;6.564;2022-12-15T10:08:53;2.85;;;1.58;;
60454;SDS011;54989;53.398;6.564;2022-12-15T10:14:34;2.67;;;1.60;;
60454;SDS011;54989;53.398;6.564;2022-12-15T10:17:15;3.20;;;1.65;;
60454;SDS011;54989;53.398;6.564;2022-12-15T10:19:48;2.83;;;2.10;;
60454;SDS011;54989;53.398;6.564;2022-12-15T10:22:27;2.92;;;1.75;;
60454;SDS011;54989;53.398;6.564;2022-12-15T10:24:58;2.60;;;1.65;;
60454;SDS011;54989;53.398;6.564;2022-12-15T10:30:50;2.80;;;1.70;;
60454;SDS011;54989;53.398;6.564;2022-12-15T10:33:25;2.65;;;1.63;;
60454;SDS011;54989;53.398;6.564;2022-12-15T10:35:58;2.90;;;1.70;;
60454;SDS011;54989;53.398;6.564;2022-12-15T10:38:35;3.33;;;1.90;;
60454;SDS011;54989;53.398;6.564;2022-12-15T10:41:11;2.60;;;1.80;;
60454;SDS011;54989;53.398;6.564;2022-12-15T10:43:42;1.90;;;1.50;;
60454;SDS011;54989;53.398;6.564;2022-12-15T10:46:16;4.75;;;2.08;;
60454;SDS011;54989;53.398;6.564;2022-12-15T10:48:47;2.33;;;1.60;;
60454;SDS011;54989;53.398;6.564;2022-12-15T10:51:26;3.83;;;1.80;;
60454;SDS011;54989;53.398;6.564;2022-12-15T10:56:31;5.18;;;1.70;;
60454;SDS011;54989;53.398;6.564;2022-12-15T10:59:01;2.25;;;1.60;;
60454;SDS011;54989;53.398;6.564;2022-12-15T11:01:47;3.42;;;1.83;;
60454;SDS011;54989;53.398;6.564;2022-12-15T11:04:24;2.22;;;1.70;;
60454;SDS011;54989;53.398;6.564;2022-12-15T11:06:59;3.42;;;1.83;;
60454;SDS011;54989;53.398;6.564;2022-12-15T11:09:35;7.50;;;1.88;;
60454;SDS011;54989;53.398;6.564;2022-12-15T11:12:17;3.03;;;1.60;;
60454;SDS011;54989;53.398;6.564;2022-12-15T11:20:34;2.38;;;1.83;;
60454;SDS011;54989;53.398;6.564;2022-12-15T11:23:12;4.20;;;1.97;;
60454;SDS011;54989;53.398;6.564;2022-12-15T11:26:05;2.90;;;1.80;;
60454;SDS011;54989;53.398;6.564;2022-12-15T11:28:58;3.65;;;2.08;;
60454;SDS011;54989;53.398;6.564;2022-12-15T11:31:41;3.03;;;1.80;;
60454;SDS011;54989;53.398;6.564;2022-12-15T11:34:18;2.13;;;1.90;;
60454;SDS011;54989;53.398;6.564;2022-12-15T11:55:58;2.53;;;1.80;;
60454;SDS011;54989;53.398;6.564;2022-12-15T11:58:57;2.30;;;2.03;;
60454;SDS011;54989;53.398;6.564;2022-12-15T12:04:32;2.63;;;1.60;;
60454;SDS011;54989;53.398;6.564;2022-12-15T12:16:06;3.60;;;1.80;;
60454;SDS011;54989;53.398;6.564;2022-12-15T12:18:53;2.33;;;1.60;;
60454;SDS011;54989;53.398;6.564;2022-12-15T12:21:25;1.77;;;1.63;;
60454;SDS011;54989;53.398;6.564;2022-12-15T12:29:24;2.20;;;1.67;;
60454;SDS011;54989;53.398;6.564;2022-12-15T12:32:07;1.90;;;1.63;;
60454;SDS011;54989;53.398;6.564;2022-12-15T12:38:00;2.67;;;1.90;;
60454;SDS011;54989;53.398;6.564;2022-12-15T12:43:07;1.85;;;1.60;;
60454;SDS011;54989;53.398;6.564;2022-12-15T12:53:36;2.65;;;1.85;;
60454;SDS011;54989;53.398;6.564;2022-12-15T12:56:03;2.30;;;1.65;;
60454;SDS011;54989;53.398;6.564;2022-12-15T13:03:46;2.55;;;1.73;;
60454;SDS011;54989;53.398;6.564;2022-12-15T13:14:19;2.67;;;1.70;;
60454;SDS011;54989;53.398;6.564;2022-12-15T13:17:16;2.50;;;1.70;;
60454;SDS011;54989;53.398;6.564;2022-12-15T13:22:29;2.22;;;1.80;;
60454;SDS011;54989;53.398;6.564;2022-12-15T13:25:00;2.33;;;1.75;;
60454;SDS011;54989;53.398;6.564;2022-12-15T13:27:35;1.88;;;1.70;;
60454;SDS011;54989;53.398;6.564;2022-12-15T13:32:34;2.47;;;1.65;;
60454;SDS011;54989;53.398;6.564;2022-12-15T13:42:57;2.70;;;1.70;;
60454;SDS011;54989;53.398;6.564;2022-12-15T13:45:50;2.28;;;1.75;;
60454;SDS011;54989;53.398;6.564;2022-12-15T13:53:26;2.65;;;1.83;;
60454;SDS011;54989;53.398;6.564;2022-12-15T13:58:39;1.30;;;1.20;;
60454;SDS011;54989;53.398;6.564;2022-12-15T14:01:18;2.13;;;1.70;;
60454;SDS011;54989;53.398;6.564;2022-12-15T14:04:19;1.85;;;1.55;;
60454;SDS011;54989;53.398;6.564;2022-12-15T14:06:48;1.67;;;1.58;;
60454;SDS011;54989;53.398;6.564;2022-12-15T14:09:50;1.55;;;1.40;;
60454;SDS011;54989;53.398;6.564;2022-12-15T14:12:16;1.95;;;1.50;;
60454;SDS011;54989;53.398;6.564;2022-12-15T14:14:46;3.25;;;1.38;;
60454;SDS011;54989;53.398;6.564;2022-12-15T14:17:16;2.35;;;1.50;;
60454;SDS011;54989;53.398;6.564;2022-12-15T14:19:46;1.60;;;1.50;;
60454;SDS011;54989;53.398;6.564;2022-12-15T14:25:00;2.47;;;1.38;;
60454;SDS011;54989;53.398;6.564;2022-12-15T14:27:39;2.50;;;1.60;;
60454;SDS011;54989;53.398;6.564;2022-12-15T14:33:05;1.95;;;1.50;;
60454;SDS011;54989;53.398;6.564;2022-12-15T14:35:44;2.47;;;1.70;;
60454;SDS011;54989;53.398;6.564;2022-12-15T14:41:13;1.35;;;1.25;;
60454;SDS011;54989;53.398;6.564;2022-12-15T14:43:46;1.40;;;1.20;;
60454;SDS011;54989;53.398;6.564;2022-12-15T14:46:35;2.90;;;1.60;;
60454;SDS011;54989;53.398;6.564;2022-12-15T14:49:04;2.20;;;1.50;;
60454;SDS011;54989;53.398;6.564;2022-12-15T14:51:42;1.60;;;1.50;;
60454;SDS011;54989;53.398;6.564;2022-12-15T14:57:02;1.38;;;1.27;;
60454;SDS011;54989;53.398;6.564;2022-12-15T14:59:42;1.73;;;1.63;;
60454;SDS011;54989;53.398;6.564;2022-12-15T15:05:01;1.67;;;1.38;;
60454;SDS011;54989;53.398;6.564;2022-12-15T15:07:33;3.13;;;1.80;;
60454;SDS011;54989;53.398;6.564;2022-12-15T15:10:15;2.45;;;1.70;;
60454;SDS011;54989;53.398;6.564;2022-12-15T15:12:49;2.00;;;1.55;;
60454;SDS011;54989;53.398;6.564;2022-12-15T15:15:20;5.50;;;1.90;;
60454;SDS011;54989;53.398;6.564;2022-12-15T15:17:52;4.72;;;1.70;;
60454;SDS011;54989;53.398;6.564;2022-12-15T15:20:27;8.25;;;1.80;;
60454;SDS011;54989;53.398;6.564;2022-12-15T15:23:03;2.47;;;1.50;;
60454;SDS011;54989;53.398;6.564;2022-12-15T15:25:48;2.72;;;1.55;;
60454;SDS011;54989;53.398;6.564;2022-12-15T15:33:32;1.83;;;1.50;;
60454;SDS011;54989;53.398;6.564;2022-12-15T15:36:00;3.10;;;1.60;;
60454;SDS011;54989;53.398;6.564;2022-12-15T15:41:00;4.28;;;1.60;;
60454;SDS011;54989;53.398;6.564;2022-12-15T15:43:40;3.22;;;1.60;;
60454;SDS011;54989;53.398;6.564;2022-12-15T15:46:15;3.97;;;1.80;;
60454;SDS011;54989;53.398;6.564;2022-12-15T15:48:51;3.90;;;1.80;;
60454;SDS011;54989;53.398;6.564;2022-12-15T15:51:25;7.65;;;2.17;;
60454;SDS011;54989;53.398;6.564;2022-12-15T15:53:56;2.50;;;1.80;;
60454;SDS011;54989;53.398;6.564;2022-12-15T15:56:27;2.25;;;1.65;;
60454;SDS011;54989;53.398;6.564;2022-12-15T15:58:57;4.28;;;1.60;;
60454;SDS011;54989;53.398;6.564;2022-12-15T16:01:28;2.58;;;1.52;;
60454;SDS011;54989;53.398;6.564;2022-12-15T16:03:56;2.25;;;1.60;;
60454;SDS011;54989;53.398;6.564;2022-12-15T16:06:23;2.85;;;1.55;;
60454;SDS011;54989;53.398;6.564;2022-12-15T16:08:52;2.33;;;1.50;;
60454;SDS011;54989;53.398;6.564;2022-12-15T16:11:23;3.08;;;1.55;;
60454;SDS011;54989;53.398;6.564;2022-12-15T16:13:53;2.33;;;1.65;;
60454;SDS011;54989;53.398;6.564;2022-12-15T16:16:26;1.30;;;1.20;;
60454;SDS011;54989;53.398;6.564;2022-12-15T16:18:57;2.28;;;1.52;;
60454;SDS011;54989;53.398;6.564;2022-12-15T16:21:26;2.60;;;1.50;;
60454;SDS011;54989;53.398;6.564;2022-12-15T16:23:54;2.50;;;1.40;;
60454;SDS011;54989;53.398;6.564;2022-12-15T16:26:26;2.22;;;1.48;;
60454;SDS011;54989;53.398;6.564;2022-12-15T16:28:57;3.05;;;1.70;;
60454;SDS011;54989;53.398;6.564;2022-12-15T16:31:31;1.85;;;1.60;;
60454;SDS011;54989;53.398;6.564;2022-12-15T16:34:07;1.70;;;1.50;;
60454;SDS011;54989;53.398;6.564;2022-12-15T16:36:34;1.80;;;1.52;;
60454;SDS011;54989;53.398;6.564;2022-12-15T16:39:02;2.20;;;1.50;;
60454;SDS011;54989;53.398;6.564;2022-12-15T16:41:30;1.88;;;1.67;;
60454;SDS011;54989;53.398;6.564;2022-12-15T16:43:58;2.35;;;1.75;;
60454;SDS011;54989;53.398;6.564;2022-12-15T16:46:26;1.50;;;1.40;;
60454;SDS011;54989;53.398;6.564;2022-12-15T16:48:54;2.03;;;1.60;;
60454;SDS011;54989;53.398;6.564;2022-12-15T16:51:25;2.10;;;1.73;;
60454;SDS011;54989;53.398;6.564;2022-12-15T16:53:59;1.63;;;1.52;;
60454;SDS011;54989;53.398;6.564;2022-12-15T16:56:27;2.08;;;1.30;;
60454;SDS011;54989;53.398;6.564;2022-12-15T16:58:54;2.28;;;1.50;;
60454;SDS011;54989;53.398;6.564;2022-12-15T17:01:42;1.90;;;1.33;;
60454;SDS011;54989;53.398;6.564;2022-12-15T17:04:10;1.65;;;1.45;;
60454;SDS011;54989;53.398;6.564;2022-12-15T17:06:38;2.15;;;1.58;;
60454;SDS011;54989;53.398;6.564;2022-12-15T17:09:06;1.98;;;1.48;;
60454;SDS011;54989;53.398;6.564;2022-12-15T17:11:45;2.42;;;1.48;;
60454;SDS011;54989;53.398;6.564;2022-12-15T17:14:12;1.45;;;1.35;;
60454;SDS011;54989;53.398;6.564;2022-12-15T17:16:40;1.73;;;1.50;;
60454;SDS011;54989;53.398;6.564;2022-12-15T17:19:07;2.17;;;1.42;;
60454;SDS011;54989;53.398;6.564;2022-12-15T17:21:39;2.25;;;1.65;;
60454;SDS011;54989;53.398;6.564;2022-12-15T17:24:15;1.80;;;1.70;;
60454;SDS011;54989;53.398;6.564;2022-12-15T17:26:46;1.70;;;1.60;;
60454;SDS011;54989;53.398;6.564;2022-12-15T17:29:15;1.83;;;1.40;;
60454;SDS011;54989;53.398;6.564;2022-12-15T17:31:45;1.50;;;1.40;;
60454;SDS011;54989;53.398;6.564;2022-12-15T17:34:29;2.40;;;1.75;;
60454;SDS011;54989;53.398;6.564;2022-12-15T17:37:02;1.95;;;1.60;;
60454;SDS011;54989;53.398;6.564;2022-12-15T17:39:31;1.60;;;1.50;;
60454;SDS011;54989;53.398;6.564;2022-12-15T17:42:00;1.60;;;1.50;;
60454;SDS011;54989;53.398;6.564;2022-12-15T17:44:29;1.55;;;1.45;;
60454;SDS011;54989;53.398;6.564;2022-12-15T17:47:03;1.60;;;1.50;;
60454;SDS011;54989;53.398;6.564;2022-12-15T17:49:33;1.83;;;1.73;;
60454;SDS011;54989;53.398;6.564;2022-12-15T17:54:52;1.60;;;1.50;;
60454;SDS011;54989;53.398;6.564;2022-12-15T17:57:21;2.55;;;1.70;;
60454;SDS011;54989;53.398;6.564;2022-12-15T17:59:49;2.47;;;1.70;;
60454;SDS011;54989;53.398;6.564;2022-12-15T18:02:16;1.77;;;1.60;;
60454;SDS011;54989;53.398;6.564;2022-12-15T18:04:44;1.90;;;1.80;;
60454;SDS011;54989;53.398;6.564;2022-12-15T18:07:13;2.10;;;1.92;;
60454;SDS011;54989;53.398;6.564;2022-12-15T18:09:49;1.83;;;1.73;;
60454;SDS011;54989;53.398;6.564;2022-12-15T18:12:21;2.13;;;1.92;;
60454;SDS011;54989;53.398;6.564;2022-12-15T18:14:51;2.60;;;2.33;;